Time;durP1;ratioP1;P1;durP2;ratioP2;P2;SDS_P1;SDS_P2;PMS_P1;PMS_P2;Temp;Humidity;BMP_temperature;BMP_pressure;BME280_temperature;BME280_humidity;BME280_pressure;Samples;Min_cycle;Max_cycle;Signal;HPM_P1;HPM_P2
2023/09/14 00:00:46;;;;;;;93.45;89.32;;;;;;;23.21;45.38;102150.13;5037269;28;20053;-74
2023/09/14 00:03:12;;;;;;;94.75;90.55;;;;;;;23.19;45.42;102141.38;5027264;28;20050;-74
2023/09/14 00:05:42;;;;;;;95.78;91.47;;;;;;;23.19;45.41;102150.44;5035556;28;20470;-74
2023/09/14 00:08:08;;;;;;;96.10;91.65;;;;;;;23.15;45.46;102148.56;5032733;28;20033;-74
2023/09/14 00:10:33;;;;;;;94.25;90.13;;;;;;;23.15;45.76;102154.09;5032331;28;20113;-74
2023/09/14 00:13:00;;;;;;;98.50;94.10;;;;;;;23.12;45.08;102155.50;5032399;28;20484;-74
2023/09/14 00:15:25;;;;;;;92.28;87.85;;;;;;;23.11;45.58;102156.63;5034600;28;20037;-74
2023/09/14 00:17:51;;;;;;;94.50;90.28;;;;;;;23.08;45.29;102154.44;5032513;28;20497;-74
2023/09/14 00:20:22;;;;;;;93.10;88.93;;;;;;;23.08;45.47;102154.44;5031979;28;20490;-75
2023/09/14 00:22:51;;;;;;;92.57;88.47;;;;;;;23.05;45.25;102139.28;5033371;28;20044;-75
2023/09/14 00:25:20;;;;;;;98.95;94.43;;;;;;;23.04;45.71;102145.94;5031217;28;20408;-75
2023/09/14 00:27:47;;;;;;;90.97;86.93;;;;;;;23.03;45.45;102151.72;5031821;28;20073;-75
2023/09/14 00:30:13;;;;;;;94.63;90.22;;;;;;;23.00;45.63;102144.88;5032112;28;20040;-74
2023/09/14 00:32:40;;;;;;;92.13;88.03;;;;;;;23.00;45.33;102146.81;5036750;28;20041;-75
2023/09/14 00:35:06;;;;;;;93.13;89.03;;;;;;;22.97;45.33;102145.47;5032047;28;20033;-75
2023/09/14 00:37:32;;;;;;;93.15;89.00;;;;;;;22.96;45.20;102148.50;5033053;28;20429;-74
2023/09/14 00:39:57;;;;;;;93.55;89.45;;;;;;;22.94;45.37;102153.47;5030258;28;20041;-75
2023/09/14 00:42:23;;;;;;;94.45;90.07;;;;;;;22.92;45.62;102153.75;5032851;28;20041;-75
2023/09/14 00:44:48;;;;;;;91.45;87.28;;;;;;;22.91;45.30;102152.13;5032767;28;20040;-75
2023/09/14 00:47:13;;;;;;;94.57;90.07;;;;;;;22.89;45.21;102151.59;5029883;28;20033;-75
2023/09/14 00:49:40;;;;;;;92.60;88.50;;;;;;;22.87;45.35;102149.13;5038382;28;20045;-75
2023/09/14 00:52:06;;;;;;;91.85;87.68;;;;;;;22.86;45.38;102154.94;5021986;28;20022;-75
2023/09/14 00:54:32;;;;;;;90.45;86.05;;;;;;;22.85;45.29;102156.84;5031808;28;20043;-75
2023/09/14 00:56:58;;;;;;;92.15;87.95;;;;;;;22.84;45.28;102151.63;5034183;28;20058;-74
2023/09/14 00:59:24;;;;;;;91.97;87.88;;;;;;;22.82;45.32;102162.13;5030144;28;20037;-74
2023/09/14 01:01:49;;;;;;;93.07;88.88;;;;;;;22.79;45.20;102160.78;5027495;28;20044;-74
2023/09/14 01:04:15;;;;;;;91.40;87.20;;;;;;;22.77;45.58;102160.25;5033785;28;20044;-74
2023/09/14 01:06:40;;;;;;;89.82;85.72;;;;;;;22.77;45.22;102163.00;5034303;28;20061;-74
2023/09/14 01:09:06;;;;;;;90.63;86.60;;;;;;;22.75;45.58;102159.69;5065556;28;20041;-74
2023/09/14 01:11:32;;;;;;;89.15;85.05;;;;;;;22.74;45.63;102163.59;5028965;28;20123;-75
2023/09/14 01:14:08;;;;;;;91.75;87.55;;;;;;;22.72;44.77;102162.22;5038184;28;20084;-75
2023/09/14 01:16:53;;;;;;;91.75;87.68;;;;;;;22.68;45.32;102160.06;5021243;28;20507;-75
2023/09/14 01:19:44;;;;;;;91.38;87.28;;;;;;;22.67;45.68;102154.84;5031748;28;20061;-75
2023/09/14 01:22:32;;;;;;;91.32;87.28;;;;;;;22.65;45.20;102162.56;5024265;28;20048;-75
2023/09/14 01:25:04;;;;;;;90.07;85.77;;;;;;;22.62;45.53;102161.19;5031827;28;20041;-75
2023/09/14 01:27:30;;;;;;;91.13;87.03;;;;;;;22.61;45.15;102165.09;5031032;28;20481;-74
2023/09/14 01:29:57;;;;;;;93.55;89.38;;;;;;;22.60;45.27;102159.84;5034049;28;20032;-75
2023/09/14 01:32:24;;;;;;;91.55;86.70;;;;;;;22.60;45.68;102154.34;5031655;28;20045;-74
2023/09/14 01:34:50;;;;;;;88.90;84.95;;;;;;;22.56;45.46;102161.56;5034763;28;20473;-74
2023/09/14 01:37:15;;;;;;;89.72;85.72;;;;;;;22.56;45.44;102151.38;5029345;28;20044;-74
2023/09/14 01:39:41;;;;;;;92.90;88.75;;;;;;;22.55;45.46;102154.41;5024402;28;20030;-74
2023/09/14 01:42:07;;;;;;;90.40;86.40;;;;;;;22.53;45.54;102159.38;5033772;28;20040;-74
2023/09/14 01:44:33;;;;;;;90.95;86.85;;;;;;;22.53;45.19;102159.38;5026465;28;20393;-74
2023/09/14 01:46:59;;;;;;;89.38;85.47;;;;;;;22.51;45.33;102161.59;5032306;28;20045;-74
2023/09/14 01:49:24;;;;;;;90.85;86.75;;;;;;;22.49;45.67;102164.63;5030123;28;20037;-74
2023/09/14 01:51:50;;;;;;;89.90;85.93;;;;;;;22.46;45.49;102157.78;5034432;28;20550;-74
2023/09/14 01:54:15;;;;;;;87.70;83.70;;;;;;;22.45;45.31;102156.16;5027891;28;20104;-74
2023/09/14 01:56:41;;;;;;;87.72;83.82;;;;;;;22.44;45.71;102160.00;5031946;28;20053;-75
2023/09/14 01:59:07;;;;;;;89.45;85.50;;;;;;;22.42;45.47;102158.63;5028800;28;20489;-75
2023/09/14 02:01:32;;;;;;;87.15;83.25;;;;;;;22.42;45.19;102158.63;5035477;28;20033;-74
2023/09/14 02:03:57;;;;;;;87.10;83.13;;;;;;;22.40;45.40;102155.34;5027847;28;20076;-74
2023/09/14 02:06:23;;;;;;;90.55;86.45;;;;;;;22.38;45.27;102158.41;5029879;28;20477;-74
2023/09/14 02:08:48;;;;;;;88.50;84.50;;;;;;;22.36;45.36;102149.59;5026450;28;20041;-74
2023/09/14 02:11:14;;;;;;;87.10;83.25;;;;;;;22.34;45.67;102157.31;5031605;28;20381;-74
2023/09/14 02:13:40;;;;;;;89.18;85.18;;;;;;;22.34;45.52;102151.00;5033431;28;20034;-77
2023/09/14 02:16:06;;;;;;;87.43;83.57;;;;;;;22.32;45.08;102148.53;5031474;28;20068;-76
2023/09/14 02:18:31;;;;;;;89.68;85.68;;;;;;;22.32;45.30;102139.47;5032650;28;20085;-76
2023/09/14 02:20:56;;;;;;;89.18;85.18;;;;;;;22.30;45.35;102147.19;5035361;28;20142;-74
2023/09/14 02:23:22;;;;;;;87.57;83.43;;;;;;;22.28;45.27;102141.16;5033438;28;20060;-76
2023/09/14 02:25:49;;;;;;;89.13;85.03;;;;;;;22.28;45.26;102136.47;5031927;28;20033;-76
2023/09/14 02:28:15;;;;;;;87.80;83.90;;;;;;;22.26;45.24;102141.44;5039581;28;20034;-76
2023/09/14 02:30:41;;;;;;;88.53;84.63;;;;;;;22.23;45.66;102145.59;5034465;28;20044;-76
2023/09/14 02:33:10;;;;;;;86.90;83.00;;;;;;;22.22;45.30;102137.59;5035869;28;20528;-76
2023/09/14 02:35:36;;;;;;;;;;;;;;;22.16;45.61;102147.00;5030006;28;20124;-76
2023/09/14 02:38:05;;;;;;;84.60;80.50;;;;;;;22.16;45.48;102139.56;5036238;28;20019;-76
2023/09/14 02:40:31;;;;;;;;;;;;;;;22.08;45.31;102134.66;5033154;28;20052;-77
2023/09/14 02:42:57;;;;;;;81.63;77.70;;;;;;;22.10;45.35;102135.22;5031053;28;20007;-75
2023/09/14 02:45:23;;;;;;;82.50;78.82;;;;;;;22.09;45.63;102130.78;5037320;28;20124;-76
2023/09/14 02:47:48;;;;;;;84.60;80.82;;;;;;;22.08;45.30;102137.41;5041762;28;20036;-76
2023/09/14 02:50:14;;;;;;;85.25;81.45;;;;;;;22.08;45.51;102139.34;5017723;28;20040;-77
2023/09/14 02:52:39;;;;;;;89.35;85.30;;;;;;;22.07;45.18;102135.75;5027074;28;20043;-76
2023/09/14 02:55:05;;;;;;;85.82;81.82;;;;;;;22.05;45.54;102138.00;5038413;28;20409;-76
2023/09/14 02:57:30;;;;;;;84.55;80.65;;;;;;;22.04;45.58;102134.41;5037041;28;20033;-76
2023/09/14 02:59:55;;;;;;;85.05;81.18;;;;;;;22.03;45.28;102130.03;5037291;28;20045;-76
2023/09/14 03:02:22;;;;;;;86.38;82.43;;;;;;;22.01;45.44;102134.97;5029640;28;20062;-76
2023/09/14 03:04:48;;;;;;;87.30;83.25;;;;;;;22.00;45.25;102136.09;5062752;28;20040;-76
2023/09/14 03:07:14;;;;;;;83.07;79.32;;;;;;;21.98;45.62;102137.50;5036242;28;20037;-77
2023/09/14 03:09:39;;;;;;;85.18;81.35;;;;;;;21.96;45.52;102125.94;5029364;28;20033;-76
2023/09/14 03:12:05;;;;;;;82.55;78.65;;;;;;;21.96;45.28;102136.94;5035632;28;20362;-75
2023/09/14 03:14:31;;;;;;;86.18;82.30;;;;;;;21.94;45.20;102139.16;5037023;28;20033;-76
2023/09/14 03:16:57;;;;;;;84.97;81.22;;;;;;;21.93;45.43;102138.34;5035349;28;20046;-75
2023/09/14 03:19:23;;;;;;;84.57;80.88;;;;;;;21.92;45.48;102133.94;5041354;28;20359;-76
2023/09/14 03:21:48;;;;;;;84.30;80.40;;;;;;;21.90;45.10;102136.19;5030090;28;20036;-76
2023/09/14 03:24:14;;;;;;;83.57;79.78;;;;;;;21.89;45.42;102145.50;5035822;28;20131;-76
2023/09/14 03:26:39;;;;;;;85.65;81.75;;;;;;;21.87;45.50;102144.16;5037914;28;20034;-76
2023/09/14 03:29:05;;;;;;;85.63;81.75;;;;;;;21.86;45.37;102135.09;5026560;28;20033;-75
2023/09/14 03:31:30;;;;;;;84.70;80.78;;;;;;;21.85;45.30;102143.63;5032384;28;20489;-77
2023/09/14 03:33:55;;;;;;;81.03;77.43;;;;;;;21.83;45.35;102144.72;5036195;28;20470;-77
2023/09/14 03:36:21;;;;;;;82.60;78.90;;;;;;;21.80;45.23;102142.56;5040288;28;20107;-76
2023/09/14 03:38:47;;;;;;;80.10;76.40;;;;;;;21.79;45.08;102140.91;5027162;28;20047;-76
2023/09/14 03:41:12;;;;;;;83.72;79.88;;;;;;;21.77;45.48;102137.63;5032114;28;20440;-76
2023/09/14 03:43:39;;;;;;;82.30;78.53;;;;;;;21.76;45.44;102138.72;5035219;28;20037;-76
2023/09/14 03:46:04;;;;;;;82.38;78.70;;;;;;;21.74;45.23;102138.19;5032663;28;20160;-76
2023/09/14 03:48:29;;;;;;;81.82;78.18;;;;;;;21.73;45.29;102143.97;5032422;28;20442;-76
2023/09/14 03:50:58;;;;;;;82.20;78.40;;;;;;;21.71;45.08;102144.25;5035351;28;20083;-75
2023/09/14 03:53:25;;;;;;;83.63;79.82;;;;;;;21.70;45.14;102141.81;5034789;28;20059;-76
2023/09/14 03:55:51;;;;;;;79.72;76.13;;;;;;;21.69;44.95;102145.66;5037970;28;20565;-76
2023/09/14 03:58:16;;;;;;;84.30;80.45;;;;;;;21.66;45.08;102141.53;5036846;28;20057;-76
2023/09/14 04:00:43;;;;;;;82.70;79.00;;;;;;;21.66;45.04;102147.03;5037199;28;20036;-75
2023/09/14 04:03:08;;;;;;;81.40;77.70;;;;;;;21.65;45.04;102147.34;5026223;28;20062;-76
2023/09/14 04:05:33;;;;;;;81.88;77.93;;;;;;;21.62;44.98;102143.22;5038141;28;20116;-76
2023/09/14 04:07:59;;;;;;;80.13;76.53;;;;;;;21.61;45.21;102142.38;5041410;28;20038;-76
2023/09/14 04:10:24;;;;;;;80.05;76.50;;;;;;;21.60;45.37;102137.19;5046042;28;20450;-75
2023/09/14 04:12:50;;;;;;;81.55;77.85;;;;;;;21.58;45.04;102139.38;5039198;28;20071;-76
2023/09/14 04:15:15;;;;;;;80.18;76.47;;;;;;;21.56;45.54;102138.84;5034025;28;20034;-77
2023/09/14 04:17:41;;;;;;;80.53;76.78;;;;;;;21.54;45.49;102133.63;5031092;28;20049;-76
2023/09/14 04:20:09;;;;;;;80.57;76.47;;;;;;;21.53;45.37;102133.91;5017580;28;20038;-76
2023/09/14 04:22:35;;;;;;;81.50;77.75;;;;;;;21.52;45.05;102137.75;5031624;28;20056;-76
2023/09/14 04:25:00;;;;;;;80.45;76.82;;;;;;;21.51;45.33;102138.88;5038720;28;20433;-78
2023/09/14 04:27:26;;;;;;;80.32;76.72;;;;;;;21.48;45.33;102139.44;5036093;28;20029;-77
2023/09/14 04:29:52;;;;;;;80.57;76.80;;;;;;;21.47;45.10;102135.03;5036840;28;20407;-76
2023/09/14 04:32:17;;;;;;;77.05;73.45;;;;;;;21.45;44.89;102135.31;5029154;28;20044;-77
2023/09/14 04:34:43;;;;;;;80.78;76.97;;;;;;;21.44;45.40;102133.66;5044103;28;20034;-75
2023/09/14 04:37:08;;;;;;;80.18;76.25;;;;;;;21.43;45.46;102132.03;5028741;28;20415;-75
2023/09/14 04:39:34;;;;;;;79.68;75.72;;;;;;;21.41;44.93;102131.50;5025608;28;20064;-74
2023/09/14 04:42:00;;;;;;;78.38;74.88;;;;;;;21.41;45.51;102128.75;5061558;28;20068;-76
2023/09/14 04:44:25;;;;;;;80.32;76.53;;;;;;;21.39;45.24;102134.53;5032985;28;20033;-76
2023/09/14 04:46:51;;;;;;;80.90;77.00;;;;;;;21.38;44.92;102143.03;5034744;28;20056;-77
2023/09/14 04:49:16;;;;;;;79.05;75.45;;;;;;;21.35;45.12;102136.16;5036052;28;20091;-75
2023/09/14 04:51:42;;;;;;;80.18;76.50;;;;;;;21.35;44.99;102138.09;5012199;28;20528;-77
2023/09/14 04:54:07;;;;;;;76.78;73.25;;;;;;;21.34;45.02;102139.19;5032356;28;20036;-78
2023/09/14 04:56:33;;;;;;;77.47;74.00;;;;;;;21.31;45.17;102132.31;5039924;28;20523;-77
2023/09/14 04:58:59;;;;;;;77.07;73.63;;;;;;;21.30;45.32;102138.94;5036465;28;20038;-77
2023/09/14 05:01:25;;;;;;;79.25;75.60;;;;;;;21.28;45.13;102140.31;5035899;28;20429;-76
2023/09/14 05:03:50;;;;;;;78.57;74.97;;;;;;;21.27;45.00;102135.91;5047960;28;20029;-77
2023/09/14 05:06:15;;;;;;;77.25;73.80;;;;;;;21.25;44.93;102140.88;5034796;28;20163;-76
2023/09/14 05:08:41;;;;;;;77.97;74.18;;;;;;;21.25;44.96;102140.88;5050421;28;20068;-77
2023/09/14 05:11:06;;;;;;;76.90;73.45;;;;;;;21.22;45.05;102141.44;5036576;28;20041;-77
2023/09/14 05:13:32;;;;;;;76.80;73.25;;;;;;;21.21;45.00;102140.59;5009228;28;20040;-78
2023/09/14 05:15:57;;;;;;;77.22;73.53;;;;;;;21.20;45.27;102138.16;5034515;28;20088;-76
2023/09/14 05:18:23;;;;;;;76.25;72.65;;;;;;;21.18;44.88;102139.25;5067369;28;20040;-77
2023/09/14 05:20:49;;;;;;;80.30;76.50;;;;;;;21.16;45.18;102146.94;5046682;28;20042;-77
2023/09/14 05:23:14;;;;;;;78.03;74.43;;;;;;;21.15;44.92;102144.50;5028046;28;20042;-77
2023/09/14 05:25:40;;;;;;;78.03;74.40;;;;;;;21.14;45.13;102146.44;5049805;28;20428;-76
2023/09/14 05:28:07;;;;;;;80.10;76.50;;;;;;;21.13;45.46;102149.44;5039670;28;20029;-75
2023/09/14 05:30:33;;;;;;;78.30;74.80;;;;;;;21.11;45.19;102155.19;5037659;28;20037;-77
2023/09/14 05:32:58;;;;;;;76.95;73.50;;;;;;;21.09;44.96;102159.31;5024564;28;20106;-76
2023/09/14 05:35:24;;;;;;;76.65;73.10;;;;;;;21.09;45.18;102164.81;5012378;28;20041;-75
2023/09/14 05:37:51;;;;;;;77.85;74.07;;;;;;;21.07;45.50;102159.63;5025842;28;20482;-76
2023/09/14 05:40:16;;;;;;;76.90;73.40;;;;;;;21.06;45.56;102165.38;5037640;28;20120;-75
2023/09/14 05:42:41;;;;;;;77.22;73.65;;;;;;;21.03;44.93;102164.03;5050823;28;20468;-75
2023/09/14 05:45:09;;;;;;;76.40;72.72;;;;;;;21.02;45.17;102165.13;5028560;28;20033;-76
2023/09/14 05:47:36;;;;;;;76.03;72.63;;;;;;;21.01;45.32;102157.97;5042058;28;20041;-77
2023/09/14 05:50:03;;;;;;;74.43;71.07;;;;;;;21.00;44.95;102169.25;5033553;28;20041;-76
2023/09/14 05:52:29;;;;;;;79.43;75.72;;;;;;;20.98;45.47;102166.78;5026695;28;20406;-76
2023/09/14 05:54:54;;;;;;;79.32;74.85;;;;;;;20.96;45.36;102168.97;5026883;28;20037;-74
2023/09/14 05:57:19;;;;;;;77.47;73.47;;;;;;;20.94;45.06;102168.44;5042207;28;20048;-77
2023/09/14 05:59:46;;;;;;;76.95;73.07;;;;;;;20.93;45.16;102167.63;5027479;28;20043;-77
2023/09/14 06:02:11;;;;;;;74.55;70.75;;;;;;;20.92;45.16;102165.97;5036266;28;20040;-75
2023/09/14 06:04:37;;;;;;;75.57;71.97;;;;;;;20.89;45.22;102169.28;5037725;28;20033;-77
2023/09/14 06:07:03;;;;;;;76.65;73.05;;;;;;;20.88;45.14;102161.31;5024629;28;20068;-75
2023/09/14 06:09:29;;;;;;;73.78;70.25;;;;;;;20.87;45.42;102166.00;5029949;28;20470;-78
2023/09/14 06:11:55;;;;;;;77.68;74.07;;;;;;;20.85;45.57;102165.44;5023178;28;20045;-76
2023/09/14 06:14:21;;;;;;;77.00;73.50;;;;;;;20.84;45.32;102166.56;5042626;28;20029;-76
2023/09/14 06:16:46;;;;;;;77.75;74.00;;;;;;;20.84;45.15;102163.81;5031412;28;20127;-75
2023/09/14 06:19:11;;;;;;;75.05;71.45;;;;;;;20.82;45.63;102159.69;5043318;28;20037;-71
2023/09/14 06:21:37;;;;;;;74.43;70.82;;;;;;;20.80;45.42;102165.44;5043523;28;20124;-75
2023/09/14 06:24:03;;;;;;;74.65;71.15;;;;;;;20.80;45.21;102170.94;5041454;28;20041;-74
2023/09/14 06:26:29;;;;;;;75.05;71.65;;;;;;;20.78;45.14;102170.38;5044629;28;20041;-74
2023/09/14 06:28:58;;;;;;;77.30;73.32;;;;;;;20.78;45.22;102177.81;5039448;28;20037;-74
2023/09/14 06:31:23;;;;;;;;;;;;;;;20.72;45.55;102166.00;5050047;28;20500;-75
2023/09/14 06:33:49;;;;;;;69.38;66.18;;;;;;;20.73;45.51;102168.47;5038036;28;19921;-74
2023/09/14 06:36:21;;;;;;;72.60;68.88;;;;;;;20.72;45.15;102174.25;5049485;28;20033;-75
2023/09/14 06:38:47;;;;;;;72.13;68.82;;;;;;;20.71;45.31;102175.34;5026093;28;20041;-74
2023/09/14 06:41:14;;;;;;;73.30;69.97;;;;;;;20.71;45.42;102178.94;5044363;28;20022;-75
2023/09/14 06:43:42;;;;;;;73.18;69.57;;;;;;;20.71;45.54;102183.56;5028054;28;20479;-75
2023/09/14 06:46:09;;;;;;;73.65;69.85;;;;;;;20.70;45.14;102177.25;5037097;28;20117;-75
2023/09/14 06:48:35;;;;;;;71.57;68.28;;;;;;;20.70;45.56;102179.19;5020916;28;20139;-76
2023/09/14 06:51:01;;;;;;;72.80;69.40;;;;;;;20.68;45.62;102179.47;5042533;28;20514;-74
2023/09/14 06:53:26;;;;;;;73.53;70.22;;;;;;;20.68;45.66;102175.91;5037743;28;20401;-75
2023/09/14 06:55:52;;;;;;;71.28;67.97;;;;;;;20.69;45.21;102183.06;5068226;28;20071;-74
2023/09/14 06:58:17;;;;;;;76.20;72.70;;;;;;;20.66;45.48;102178.09;5033971;28;20037;-75
2023/09/14 07:00:42;;;;;;;74.05;70.57;;;;;;;20.66;45.59;102175.34;5044694;28;20037;-74
2023/09/14 07:03:08;;;;;;;74.93;71.32;;;;;;;20.65;45.32;102171.78;5040079;28;20318;-75
2023/09/14 07:05:35;;;;;;;72.40;68.90;;;;;;;20.65;45.38;102176.44;5041113;28;20040;-75
2023/09/14 07:08:01;;;;;;;75.32;71.82;;;;;;;20.64;45.35;102174.81;5047765;28;20111;-74
2023/09/14 07:10:27;;;;;;;72.10;68.53;;;;;;;20.65;45.58;102177.28;5025648;28;20025;-75
2023/09/14 07:12:52;;;;;;;67.88;64.75;;;;;;;20.62;45.55;102172.34;5037500;28;20411;-74
2023/09/14 07:15:17;;;;;;;69.32;66.05;;;;;;;20.62;45.63;102174.25;5027359;28;20500;-75
2023/09/14 07:17:43;;;;;;;68.10;64.88;;;;;;;20.62;45.40;102171.53;5045076;28;20046;-74
2023/09/14 07:20:09;;;;;;;70.45;67.15;;;;;;;20.62;45.75;102177.00;5041211;28;20056;-74
2023/09/14 07:22:35;;;;;;;68.03;64.82;;;;;;;20.62;45.44;102179.75;5026133;28;20069;-74
2023/09/14 07:25:01;;;;;;;68.90;65.70;;;;;;;20.61;45.23;102178.91;5042508;28;20491;-74
2023/09/14 07:27:27;;;;;;;68.28;64.97;;;;;;;20.59;45.30;102181.13;5049331;28;20037;-74
2023/09/14 07:29:52;;;;;;;68.68;65.38;;;;;;;20.60;45.63;102180.03;5048861;28;20044;-74
2023/09/14 07:32:18;;;;;;;71.55;68.25;;;;;;;20.60;45.30;102179.19;5023303;28;20347;-74
2023/09/14 07:34:44;;;;;;;69.65;66.28;;;;;;;20.59;45.36;102178.38;5042667;28;20116;-74
2023/09/14 07:37:09;;;;;;;70.22;66.82;;;;;;;20.59;45.51;102186.63;5031675;28;20177;-75
2023/09/14 07:39:35;;;;;;;69.80;66.60;;;;;;;20.59;45.45;102181.13;5033524;28;20458;-75
2023/09/14 07:42:00;;;;;;;70.70;67.18;;;;;;;20.58;45.63;102187.69;5034336;28;20118;-74
2023/09/14 07:44:25;;;;;;;67.22;64.03;;;;;;;20.58;45.70;102187.69;5032180;28;20195;-74
2023/09/14 07:46:51;;;;;;;70.28;67.05;;;;;;;20.58;45.64;102187.69;5024009;28;20033;-75
2023/09/14 07:49:16;;;;;;;68.00;64.78;;;;;;;20.58;45.52;102198.69;5052999;28;20036;-75
2023/09/14 07:51:42;;;;;;;67.82;64.72;;;;;;;20.59;45.50;102191.25;5040988;28;20033;-75
2023/09/14 07:54:07;;;;;;;67.40;64.10;;;;;;;20.58;45.49;102193.19;5025881;28;20041;-74
2023/09/14 07:56:33;;;;;;;69.18;65.88;;;;;;;20.58;45.44;102195.94;5045964;28;20461;-75
2023/09/14 07:58:58;;;;;;;68.15;64.88;;;;;;;20.58;45.92;102195.94;5020958;28;20030;-75
2023/09/14 08:01:23;;;;;;;66.95;63.55;;;;;;;20.59;45.70;102194.00;5076101;28;20494;-75
2023/09/14 08:03:49;;;;;;;68.28;65.00;;;;;;;20.59;45.75;102197.59;5039601;28;20082;-75
2023/09/14 08:06:19;;;;;;;68.07;64.78;;;;;;;20.59;45.91;102199.50;5052249;28;20196;-76
2023/09/14 08:08:45;;;;;;;69.47;66.13;;;;;;;20.60;45.88;102193.75;5034508;28;20052;-76
2023/09/14 08:11:11;;;;;;;71.95;68.55;;;;;;;20.61;45.42;102203.63;5037619;28;20060;-69
2023/09/14 08:13:37;;;;;;;70.20;66.80;;;;;;;20.61;45.45;102197.31;5021336;28;20072;-73
2023/09/14 08:16:06;;;;;;;72.47;68.53;;;;;;;20.62;46.00;102193.47;5027900;28;20044;-73
2023/09/14 08:18:31;;;;;;;69.03;65.75;;;;;;;20.62;46.00;102191.56;5042846;28;20044;-74
2023/09/14 08:20:57;;;;;;;67.82;64.55;;;;;;;20.63;45.72;102190.44;5052690;28;20115;-73
2023/09/14 08:23:22;;;;;;;67.68;64.47;;;;;;;20.64;45.67;102188.53;5033744;28;20036;-73
2023/09/14 08:25:48;;;;;;;68.50;64.97;;;;;;;20.66;45.72;102194.56;5026345;28;20034;-74
2023/09/14 08:28:15;;;;;;;69.32;66.03;;;;;;;20.67;45.92;102202.53;5044064;28;20033;-73
2023/09/14 08:30:41;;;;;;;69.82;66.50;;;;;;;20.68;45.99;102192.38;5034699;28;20076;-74
2023/09/14 08:33:07;;;;;;;69.00;65.40;;;;;;;20.70;45.98;102198.41;5035918;28;20045;-74
2023/09/14 08:35:34;;;;;;;69.15;65.80;;;;;;;20.71;46.15;102198.16;5025809;28;20095;-73
2023/09/14 08:38:03;;;;;;;71.93;68.50;;;;;;;20.73;46.42;102197.84;5038105;28;20113;-73
2023/09/14 08:40:30;;;;;;;70.05;66.68;;;;;;;20.73;45.76;102204.16;5046572;28;20496;-74
2023/09/14 08:42:56;;;;;;;73.05;69.53;;;;;;;20.75;45.85;102201.97;5040686;28;20406;-73
2023/09/14 08:45:26;;;;;;;71.82;68.28;;;;;;;20.77;46.32;102206.38;5028431;28;20040;-73
2023/09/14 08:47:52;;;;;;;77.07;73.25;;;;;;;20.78;46.25;102202.53;5041913;28;20037;-72
2023/09/14 08:50:20;;;;;;;72.78;69.07;;;;;;;20.79;45.91;102202.25;5049270;28;20037;-74
2023/09/14 08:52:46;;;;;;;69.72;66.40;;;;;;;20.81;46.35;102205.53;5045273;28;20040;-74
2023/09/14 08:55:13;;;;;;;71.82;68.32;;;;;;;20.82;46.01;102204.44;5041153;28;20087;-73
2023/09/14 08:57:41;;;;;;;71.72;68.32;;;;;;;20.83;46.33;102200.59;5025979;28;20021;-73
2023/09/14 09:00:17;;;;;;;73.05;69.38;;;;;;;20.85;46.29;102209.38;5035404;28;20124;-73
2023/09/14 09:02:47;;;;;;;73.72;69.85;;;;;;;20.86;46.60;102199.22;5047503;28;20131;-73
2023/09/14 09:05:15;;;;;;;74.82;70.97;;;;;;;20.88;46.38;102202.50;5038679;28;20064;-73
2023/09/14 09:07:45;;;;;;;73.70;69.65;;;;;;;20.88;46.42;102189.59;5025905;28;20456;-73
2023/09/14 09:10:19;;;;;;;72.78;69.05;;;;;;;20.91;46.48;102196.47;5027031;28;20045;-74
2023/09/14 09:12:46;;;;;;;74.80;71.10;;;;;;;20.91;46.63;102196.47;5041115;28;20025;-72
2023/09/14 09:15:13;;;;;;;74.22;70.13;;;;;;;20.93;46.61;102183.28;5042851;28;20029;-73
2023/09/14 09:17:40;;;;;;;72.57;68.97;;;;;;;20.96;46.81;102194.53;5027460;28;20037;-73
2023/09/14 09:20:19;;;;;;;78.35;74.03;;;;;;;20.99;46.36;102184.94;5037703;28;20478;-74
2023/09/14 09:22:45;;;;;;;75.13;71.38;;;;;;;21.02;46.89;102192.59;5023283;28;20040;-73
2023/09/14 09:25:12;;;;;;;75.38;71.22;;;;;;;21.05;46.40;102189.31;5045108;28;20474;-74
2023/09/14 09:27:41;;;;;;;76.05;71.70;;;;;;;21.09;46.84;102192.28;5033429;28;20490;-73
2023/09/14 09:30:09;;;;;;;;;;;;;;;21.05;46.96;102185.72;5030019;28;20375;-73
2023/09/14 09:32:38;;;;;;;73.30;68.80;;;;;;;21.10;46.52;102193.97;5040509;28;19921;-73
2023/09/14 09:35:21;;;;;;;75.68;71.43;;;;;;;21.10;46.66;102188.47;5032448;28;20112;-73
2023/09/14 09:37:48;;;;;;;74.35;70.70;;;;;;;21.12;47.10;102198.06;5027651;28;20116;-73
2023/09/14 09:40:15;;;;;;;75.15;71.32;;;;;;;21.14;47.20;102193.13;5032260;28;20050;-73
2023/09/14 09:42:41;;;;;;;75.70;71.50;;;;;;;21.18;47.11;102188.72;5042562;28;20041;-74
2023/09/14 09:45:08;;;;;;;74.40;70.80;;;;;;;21.23;46.64;102195.31;5034519;28;20374;-73
2023/09/14 09:47:34;;;;;;;74.65;71.13;;;;;;;21.24;47.09;102186.75;5029336;28;20040;-73
2023/09/14 09:50:00;;;;;;;76.00;72.05;;;;;;;21.27;46.90;102188.13;5038868;28;20106;-73
2023/09/14 09:52:26;;;;;;;76.80;72.80;;;;;;;21.30;47.00;102188.41;5045479;28;20069;-73
2023/09/14 09:54:51;;;;;;;73.70;69.90;;;;;;;21.32;47.16;102185.38;5036813;28;20041;-73
2023/09/14 09:57:19;;;;;;;76.55;72.65;;;;;;;21.35;47.13;102182.06;5031335;28;20045;-73
2023/09/14 09:59:48;;;;;;;75.63;71.72;;;;;;;21.37;47.02;102182.63;5028789;28;20078;-73
2023/09/14 10:02:13;;;;;;;78.15;74.15;;;;;;;21.40;47.52;102184.84;5014072;28;20041;-73
2023/09/14 10:04:39;;;;;;;78.40;74.38;;;;;;;21.42;47.14;102181.78;5035255;28;20390;-73
2023/09/14 10:07:08;;;;;;;78.80;74.82;;;;;;;21.43;47.76;102178.75;5032426;28;20045;-72
2023/09/14 10:09:34;;;;;;;78.25;74.28;;;;;;;21.46;47.79;102178.19;5016853;28;20038;-72
2023/09/14 10:12:03;;;;;;;77.78;74.07;;;;;;;21.48;47.60;102178.75;5030583;28;20418;-72
2023/09/14 10:14:32;;;;;;;78.65;74.60;;;;;;;21.51;47.80;102174.59;5042554;28;20136;-73
2023/09/14 10:16:59;;;;;;;80.78;76.55;;;;;;;21.53;47.43;102181.47;5028772;28;20037;-73
2023/09/14 10:19:25;;;;;;;82.55;78.40;;;;;;;21.56;47.33;102180.91;5040066;28;20052;-73
2023/09/14 10:21:52;;;;;;;76.97;73.22;;;;;;;21.60;47.47;102182.00;5019288;28;20101;-73
2023/09/14 10:24:19;;;;;;;80.93;77.07;;;;;;;21.63;47.98;102169.59;5038977;28;20026;-72
2023/09/14 10:26:47;;;;;;;75.72;72.13;;;;;;;21.66;47.40;102177.28;5035435;28;20055;-73
2023/09/14 10:29:13;;;;;;;79.50;75.38;;;;;;;21.69;47.68;102168.47;5041151;28;20552;-72
2023/09/14 10:31:42;;;;;;;77.05;73.35;;;;;;;21.72;47.73;102164.31;5027495;28;20112;-73
2023/09/14 10:34:10;;;;;;;79.97;76.18;;;;;;;21.75;48.07;102170.09;5029611;28;20033;-73
2023/09/14 10:36:38;;;;;;;;;;;;;;;21.72;47.63;102164.31;5014563;28;20092;-73
2023/09/14 10:39:06;;;;;;;77.57;73.55;;;;;;;21.78;48.02;102168.72;5029431;28;20011;-72
2023/09/14 10:41:31;;;;;;;78.80;74.85;;;;;;;21.80;48.01;102163.75;5036420;28;20397;-73
2023/09/14 10:43:57;;;;;;;79.72;76.05;;;;;;;21.81;48.00;102159.88;5047493;28;20476;-72
2023/09/14 10:46:30;;;;;;;81.70;77.80;;;;;;;21.86;47.96;102159.03;5036411;28;20060;-72
2023/09/14 10:48:58;;;;;;;81.88;78.10;;;;;;;21.89;47.85;102153.78;5045808;28;20033;-72
2023/09/14 10:51:23;;;;;;;81.95;77.97;;;;;;;21.90;47.72;102149.94;5021529;28;20144;-72
2023/09/14 10:53:50;;;;;;;78.32;74.68;;;;;;;21.94;47.84;102155.66;5048305;28;20064;-72
2023/09/14 10:56:20;;;;;;;81.25;77.22;;;;;;;21.96;47.98;102148.78;5040966;28;20398;-72
2023/09/14 10:58:49;;;;;;;79.43;75.63;;;;;;;22.00;48.07;102141.59;5022605;28;20121;-73
2023/09/14 11:01:23;;;;;;;82.00;78.00;;;;;;;22.03;47.97;102138.28;5034340;28;20366;-72
2023/09/14 11:04:15;;;;;;;81.03;77.22;;;;;;;22.03;47.80;102138.28;5048745;28;20043;-71
2023/09/14 11:06:48;;;;;;;81.25;77.28;;;;;;;22.09;47.89;102132.72;5045750;28;20036;-72
2023/09/14 11:09:14;;;;;;;82.15;78.35;;;;;;;22.12;48.32;102135.72;5031534;28;20033;-72